sensor_id;sensor_type;location;lat;lon;timestamp;temperature;humidity
36002;DHT22;22070;50.922;5.430;2022-10-18T00:01:40;16.30;99.90
36002;DHT22;22070;50.922;5.430;2022-10-18T00:04:05;16.30;99.90
36002;DHT22;22070;50.922;5.430;2022-10-18T00:06:31;16.30;99.90
36002;DHT22;22070;50.922;5.430;2022-10-18T00:08:57;16.30;99.90
36002;DHT22;22070;50.922;5.430;2022-10-18T00:11:23;16.30;99.90
36002;DHT22;22070;50.922;5.430;2022-10-18T00:13:48;16.30;99.90
36002;DHT22;22070;50.922;5.430;2022-10-18T00:16:15;16.30;99.90
36002;DHT22;22070;50.922;5.430;2022-10-18T00:18:42;16.30;99.90
36002;DHT22;22070;50.922;5.430;2022-10-18T00:21:13;16.30;99.90
36002;DHT22;22070;50.922;5.430;2022-10-18T00:23:39;16.30;99.90
36002;DHT22;22070;50.922;5.430;2022-10-18T00:26:11;16.30;99.90
36002;DHT22;22070;50.922;5.430;2022-10-18T00:28:37;16.30;99.90
36002;DHT22;22070;50.922;5.430;2022-10-18T00:33:35;16.30;99.90
36002;DHT22;22070;50.922;5.430;2022-10-18T00:36:00;16.30;99.90
36002;DHT22;22070;50.922;5.430;2022-10-18T00:38:26;16.30;99.90
36002;DHT22;22070;50.922;5.430;2022-10-18T00:40:51;16.30;99.90
36002;DHT22;22070;50.922;5.430;2022-10-18T00:43:17;16.30;99.90
36002;DHT22;22070;50.922;5.430;2022-10-18T00:45:43;16.30;99.90
36002;DHT22;22070;50.922;5.430;2022-10-18T00:48:09;16.30;99.90
36002;DHT22;22070;50.922;5.430;2022-10-18T00:50:36;16.30;99.90
36002;DHT22;22070;50.922;5.430;2022-10-18T00:53:03;16.30;99.90
36002;DHT22;22070;50.922;5.430;2022-10-18T00:55:31;16.30;99.90
36002;DHT22;22070;50.922;5.430;2022-10-18T00:57:58;16.30;99.90
36002;DHT22;22070;50.922;5.430;2022-10-18T01:00:24;16.30;99.90
36002;DHT22;22070;50.922;5.430;2022-10-18T01:02:50;16.30;99.90
36002;DHT22;22070;50.922;5.430;2022-10-18T01:05:17;15.30;99.90
36002;DHT22;22070;50.922;5.430;2022-10-18T01:10:29;16.20;99.90
36002;DHT22;22070;50.922;5.430;2022-10-18T01:22:05;16.30;99.90
36002;DHT22;22070;50.922;5.430;2022-10-18T01:30:01;16.30;99.90
36002;DHT22;22070;50.922;5.430;2022-10-18T01:32:31;16.30;99.90
36002;DHT22;22070;50.922;5.430;2022-10-18T01:35:03;16.20;99.90
36002;DHT22;22070;50.922;5.430;2022-10-18T01:37:34;16.30;99.90
36002;DHT22;22070;50.922;5.430;2022-10-18T01:40:02;16.20;99.90
36002;DHT22;22070;50.922;5.430;2022-10-18T01:42:31;16.20;99.90
36002;DHT22;22070;50.922;5.430;2022-10-18T01:44:58;16.30;99.90
36002;DHT22;22070;50.922;5.430;2022-10-18T01:47:26;16.20;99.90
36002;DHT22;22070;50.922;5.430;2022-10-18T01:49:56;16.30;99.90
36002;DHT22;22070;50.922;5.430;2022-10-18T01:52:22;16.30;99.90
36002;DHT22;22070;50.922;5.430;2022-10-18T01:54:48;16.30;99.90
36002;DHT22;22070;50.922;5.430;2022-10-18T01:57:41;16.30;99.90
36002;DHT22;22070;50.922;5.430;2022-10-18T02:00:18;16.30;99.90
36002;DHT22;22070;50.922;5.430;2022-10-18T02:03:00;16.30;99.90
36002;DHT22;22070;50.922;5.430;2022-10-18T02:05:38;16.30;99.90
36002;DHT22;22070;50.922;5.430;2022-10-18T02:10:46;16.40;99.90
36002;DHT22;22070;50.922;5.430;2022-10-18T02:13:16;16.30;99.90
36002;DHT22;22070;50.922;5.430;2022-10-18T02:15:46;16.40;99.90
36002;DHT22;22070;50.922;5.430;2022-10-18T02:18:16;16.40;99.90
36002;DHT22;22070;50.922;5.430;2022-10-18T02:20:44;16.40;99.90
36002;DHT22;22070;50.922;5.430;2022-10-18T02:23:09;16.40;99.90
36002;DHT22;22070;50.922;5.430;2022-10-18T02:25:36;16.40;99.90
36002;DHT22;22070;50.922;5.430;2022-10-18T02:28:03;16.30;99.90
36002;DHT22;22070;50.922;5.430;2022-10-18T02:30:39;16.30;99.90
36002;DHT22;22070;50.922;5.430;2022-10-18T02:33:12;16.30;99.90
36002;DHT22;22070;50.922;5.430;2022-10-18T02:35:43;16.30;99.90
36002;DHT22;22070;50.922;5.430;2022-10-18T02:38:11;16.30;99.90
36002;DHT22;22070;50.922;5.430;2022-10-18T02:40:38;16.40;99.90
36002;DHT22;22070;50.922;5.430;2022-10-18T02:43:04;16.30;99.90
36002;DHT22;22070;50.922;5.430;2022-10-18T02:45:30;16.40;99.90
36002;DHT22;22070;50.922;5.430;2022-10-18T02:47:57;16.30;99.90
36002;DHT22;22070;50.922;5.430;2022-10-18T02:50:22;16.40;99.90
36002;DHT22;22070;50.922;5.430;2022-10-18T02:52:48;16.40;99.90
36002;DHT22;22070;50.922;5.430;2022-10-18T02:55:13;16.40;99.90
36002;DHT22;22070;50.922;5.430;2022-10-18T02:57:39;16.40;99.90
36002;DHT22;22070;50.922;5.430;2022-10-18T03:00:05;16.40;99.90
36002;DHT22;22070;50.922;5.430;2022-10-18T03:02:31;16.40;99.90
36002;DHT22;22070;50.922;5.430;2022-10-18T03:04:57;16.40;99.90
36002;DHT22;22070;50.922;5.430;2022-10-18T03:07:23;16.40;99.90
36002;DHT22;22070;50.922;5.430;2022-10-18T03:09:48;16.30;99.90
36002;DHT22;22070;50.922;5.430;2022-10-18T03:12:14;16.30;99.90
36002;DHT22;22070;50.922;5.430;2022-10-18T03:14:40;16.30;99.90
36002;DHT22;22070;50.922;5.430;2022-10-18T03:17:06;16.40;99.90
36002;DHT22;22070;50.922;5.430;2022-10-18T03:19:31;16.30;99.90
36002;DHT22;22070;50.922;5.430;2022-10-18T03:21:57;16.40;99.90
36002;DHT22;22070;50.922;5.430;2022-10-18T03:24:23;16.40;99.90
36002;DHT22;22070;50.922;5.430;2022-10-18T03:26:48;16.40;99.90
36002;DHT22;22070;50.922;5.430;2022-10-18T03:29:14;16.40;99.90
36002;DHT22;22070;50.922;5.430;2022-10-18T03:31:39;16.40;99.90
36002;DHT22;22070;50.922;5.430;2022-10-18T03:34:05;16.40;99.90
36002;DHT22;22070;50.922;5.430;2022-10-18T03:36:31;16.40;99.90
36002;DHT22;22070;50.922;5.430;2022-10-18T03:38:58;16.40;99.90
36002;DHT22;22070;50.922;5.430;2022-10-18T03:41:24;16.40;99.90
36002;DHT22;22070;50.922;5.430;2022-10-18T03:43:49;16.40;99.90
36002;DHT22;22070;50.922;5.430;2022-10-18T03:46:15;16.40;99.90
36002;DHT22;22070;50.922;5.430;2022-10-18T03:48:40;16.40;99.90
36002;DHT22;22070;50.922;5.430;2022-10-18T03:51:06;16.40;99.90
36002;DHT22;22070;50.922;5.430;2022-10-18T03:53:32;16.40;99.90
36002;DHT22;22070;50.922;5.430;2022-10-18T03:55:57;16.40;99.90
36002;DHT22;22070;50.922;5.430;2022-10-18T03:58:23;16.40;99.90
36002;DHT22;22070;50.922;5.430;2022-10-18T04:00:53;16.40;99.90
36002;DHT22;22070;50.922;5.430;2022-10-18T04:03:20;16.50;99.90
36002;DHT22;22070;50.922;5.430;2022-10-18T04:05:47;16.50;99.90
36002;DHT22;22070;50.922;5.430;2022-10-18T04:08:13;16.50;99.90
36002;DHT22;22070;50.922;5.430;2022-10-18T04:10:39;16.50;99.90
36002;DHT22;22070;50.922;5.430;2022-10-18T04:13:05;16.50;99.90
36002;DHT22;22070;50.922;5.430;2022-10-18T04:15:31;16.40;99.90
36002;DHT22;22070;50.922;5.430;2022-10-18T04:17:57;16.50;99.90
36002;DHT22;22070;50.922;5.430;2022-10-18T04:20:23;16.50;99.90
36002;DHT22;22070;50.922;5.430;2022-10-18T04:22:49;16.50;99.90
36002;DHT22;22070;50.922;5.430;2022-10-18T04:25:16;16.50;99.90
36002;DHT22;22070;50.922;5.430;2022-10-18T04:27:42;16.50;99.90
36002;DHT22;22070;50.922;5.430;2022-10-18T04:30:08;16.50;99.90
36002;DHT22;22070;50.922;5.430;2022-10-18T04:32:34;16.40;99.90
36002;DHT22;22070;50.922;5.430;2022-10-18T04:35:01;16.40;99.90
36002;DHT22;22070;50.922;5.430;2022-10-18T04:37:27;16.40;99.90
36002;DHT22;22070;50.922;5.430;2022-10-18T04:39:53;16.40;99.90
36002;DHT22;22070;50.922;5.430;2022-10-18T04:42:18;16.40;99.90
36002;DHT22;22070;50.922;5.430;2022-10-18T04:44:44;16.40;99.90
36002;DHT22;22070;50.922;5.430;2022-10-18T04:47:10;16.40;99.90
36002;DHT22;22070;50.922;5.430;2022-10-18T04:49:35;16.40;99.90
36002;DHT22;22070;50.922;5.430;2022-10-18T04:52:01;16.40;99.90
36002;DHT22;22070;50.922;5.430;2022-10-18T04:54:27;16.40;99.90
36002;DHT22;22070;50.922;5.430;2022-10-18T04:56:52;16.40;99.90
36002;DHT22;22070;50.922;5.430;2022-10-18T04:59:18;16.40;99.90
36002;DHT22;22070;50.922;5.430;2022-10-18T05:01:43;16.40;99.90
36002;DHT22;22070;50.922;5.430;2022-10-18T05:04:09;16.40;99.90
36002;DHT22;22070;50.922;5.430;2022-10-18T05:06:35;16.40;99.90
36002;DHT22;22070;50.922;5.430;2022-10-18T05:09:00;16.40;99.90
36002;DHT22;22070;50.922;5.430;2022-10-18T05:11:26;16.40;99.90
36002;DHT22;22070;50.922;5.430;2022-10-18T05:13:52;16.30;99.90
36002;DHT22;22070;50.922;5.430;2022-10-18T05:16:18;16.40;99.90
36002;DHT22;22070;50.922;5.430;2022-10-18T05:18:44;16.40;99.90
36002;DHT22;22070;50.922;5.430;2022-10-18T05:21:10;16.30;99.90
36002;DHT22;22070;50.922;5.430;2022-10-18T05:23:37;16.40;99.90
36002;DHT22;22070;50.922;5.430;2022-10-18T05:26:04;16.40;99.90
36002;DHT22;22070;50.922;5.430;2022-10-18T05:28:31;16.40;99.90
36002;DHT22;22070;50.922;5.430;2022-10-18T05:31:08;16.40;99.90
36002;DHT22;22070;50.922;5.430;2022-10-18T05:33:34;16.40;99.90
36002;DHT22;22070;50.922;5.430;2022-10-18T05:35:59;16.40;99.90
36002;DHT22;22070;50.922;5.430;2022-10-18T05:38:25;16.40;99.90
36002;DHT22;22070;50.922;5.430;2022-10-18T05:40:51;16.30;99.90
36002;DHT22;22070;50.922;5.430;2022-10-18T05:43:17;16.30;99.90
36002;DHT22;22070;50.922;5.430;2022-10-18T05:45:51;16.30;99.90
36002;DHT22;22070;50.922;5.430;2022-10-18T05:48:17;16.30;99.90
36002;DHT22;22070;50.922;5.430;2022-10-18T05:50:43;16.30;99.90
36002;DHT22;22070;50.922;5.430;2022-10-18T05:53:09;16.30;99.90
36002;DHT22;22070;50.922;5.430;2022-10-18T05:55:34;16.40;99.90
36002;DHT22;22070;50.922;5.430;2022-10-18T05:58:00;16.30;99.90
36002;DHT22;22070;50.922;5.430;2022-10-18T06:00:27;16.30;99.90
36002;DHT22;22070;50.922;5.430;2022-10-18T06:02:52;16.30;99.90
36002;DHT22;22070;50.922;5.430;2022-10-18T06:05:18;16.30;99.90
36002;DHT22;22070;50.922;5.430;2022-10-18T06:07:44;16.30;99.90
36002;DHT22;22070;50.922;5.430;2022-10-18T06:10:09;16.30;99.90
36002;DHT22;22070;50.922;5.430;2022-10-18T06:12:35;16.30;99.90
36002;DHT22;22070;50.922;5.430;2022-10-18T06:15:00;16.30;99.90
36002;DHT22;22070;50.922;5.430;2022-10-18T06:17:26;16.30;99.90
36002;DHT22;22070;50.922;5.430;2022-10-18T06:19:52;16.30;99.90
36002;DHT22;22070;50.922;5.430;2022-10-18T06:22:17;16.20;99.90
36002;DHT22;22070;50.922;5.430;2022-10-18T06:24:43;16.20;99.90
36002;DHT22;22070;50.922;5.430;2022-10-18T06:27:08;16.20;99.90
36002;DHT22;22070;50.922;5.430;2022-10-18T06:29:35;16.20;99.90
36002;DHT22;22070;50.922;5.430;2022-10-18T06:32:00;16.20;99.90
36002;DHT22;22070;50.922;5.430;2022-10-18T06:34:26;16.20;99.90
36002;DHT22;22070;50.922;5.430;2022-10-18T06:36:51;16.20;99.90
36002;DHT22;22070;50.922;5.430;2022-10-18T06:39:17;16.10;99.90
36002;DHT22;22070;50.922;5.430;2022-10-18T06:41:43;16.20;99.90
36002;DHT22;22070;50.922;5.430;2022-10-18T06:44:08;16.20;99.90
36002;DHT22;22070;50.922;5.430;2022-10-18T06:46:43;16.10;99.90
36002;DHT22;22070;50.922;5.430;2022-10-18T06:49:09;16.10;99.90
36002;DHT22;22070;50.922;5.430;2022-10-18T06:51:34;16.10;99.90
36002;DHT22;22070;50.922;5.430;2022-10-18T06:54:00;16.10;99.90
36002;DHT22;22070;50.922;5.430;2022-10-18T06:56:26;16.20;99.90
36002;DHT22;22070;50.922;5.430;2022-10-18T06:58:52;16.20;99.90
36002;DHT22;22070;50.922;5.430;2022-10-18T07:01:18;16.10;99.90
36002;DHT22;22070;50.922;5.430;2022-10-18T07:03:44;16.10;99.90
36002;DHT22;22070;50.922;5.430;2022-10-18T07:06:11;16.20;99.90
36002;DHT22;22070;50.922;5.430;2022-10-18T07:08:38;16.20;99.90
36002;DHT22;22070;50.922;5.430;2022-10-18T07:11:05;16.20;99.90
36002;DHT22;22070;50.922;5.430;2022-10-18T07:13:31;16.30;99.90
36002;DHT22;22070;50.922;5.430;2022-10-18T07:16:01;16.30;99.90
36002;DHT22;22070;50.922;5.430;2022-10-18T07:18:27;16.40;99.90
36002;DHT22;22070;50.922;5.430;2022-10-18T07:20:52;16.40;99.90
36002;DHT22;22070;50.922;5.430;2022-10-18T07:23:18;16.50;99.90
36002;DHT22;22070;50.922;5.430;2022-10-18T07:25:45;16.50;99.90
36002;DHT22;22070;50.922;5.430;2022-10-18T07:28:12;16.50;99.90
36002;DHT22;22070;50.922;5.430;2022-10-18T07:30:37;16.60;99.90
36002;DHT22;22070;50.922;5.430;2022-10-18T07:33:03;16.70;99.90
36002;DHT22;22070;50.922;5.430;2022-10-18T07:35:28;16.70;99.90
36002;DHT22;22070;50.922;5.430;2022-10-18T07:37:54;16.80;99.90
36002;DHT22;22070;50.922;5.430;2022-10-18T07:40:20;16.80;99.90
36002;DHT22;22070;50.922;5.430;2022-10-18T07:42:46;16.80;99.90
36002;DHT22;22070;50.922;5.430;2022-10-18T07:45:11;16.80;99.90
36002;DHT22;22070;50.922;5.430;2022-10-18T07:47:38;16.80;99.90
36002;DHT22;22070;50.922;5.430;2022-10-18T07:50:04;16.90;99.90
36002;DHT22;22070;50.922;5.430;2022-10-18T07:52:29;16.90;99.90
36002;DHT22;22070;50.922;5.430;2022-10-18T07:54:55;16.90;99.90
36002;DHT22;22070;50.922;5.430;2022-10-18T07:57:20;17.00;99.90
36002;DHT22;22070;50.922;5.430;2022-10-18T07:59:47;17.00;99.90
36002;DHT22;22070;50.922;5.430;2022-10-18T08:02:16;17.10;99.90
36002;DHT22;22070;50.922;5.430;2022-10-18T08:04:42;17.10;99.90
36002;DHT22;22070;50.922;5.430;2022-10-18T08:07:07;17.10;99.90
36002;DHT22;22070;50.922;5.430;2022-10-18T08:09:33;17.00;99.90
36002;DHT22;22070;50.922;5.430;2022-10-18T08:11:59;17.10;99.90
36002;DHT22;22070;50.922;5.430;2022-10-18T08:14:24;17.10;99.90
36002;DHT22;22070;50.922;5.430;2022-10-18T08:16:50;17.10;99.90
36002;DHT22;22070;50.922;5.430;2022-10-18T08:19:15;17.20;99.90
36002;DHT22;22070;50.922;5.430;2022-10-18T08:21:41;17.10;99.90
36002;DHT22;22070;50.922;5.430;2022-10-18T08:24:07;17.10;99.90
36002;DHT22;22070;50.922;5.430;2022-10-18T08:26:32;17.20;99.90
36002;DHT22;22070;50.922;5.430;2022-10-18T08:28:58;17.20;99.90
36002;DHT22;22070;50.922;5.430;2022-10-18T08:31:23;17.20;99.90
36002;DHT22;22070;50.922;5.430;2022-10-18T08:33:49;17.30;99.90
36002;DHT22;22070;50.922;5.430;2022-10-18T08:36:16;17.30;99.90
36002;DHT22;22070;50.922;5.430;2022-10-18T08:38:42;17.30;99.90
36002;DHT22;22070;50.922;5.430;2022-10-18T08:44:15;17.30;99.90
36002;DHT22;22070;50.922;5.430;2022-10-18T08:46:47;17.30;99.90
36002;DHT22;22070;50.922;5.430;2022-10-18T08:49:53;17.20;99.90
36002;DHT22;22070;50.922;5.430;2022-10-18T08:55:41;17.30;99.90
36002;DHT22;22070;50.922;5.430;2022-10-18T08:58:21;17.30;99.90
36002;DHT22;22070;50.922;5.430;2022-10-18T09:03:59;17.40;99.90
36002;DHT22;22070;50.922;5.430;2022-10-18T09:09:17;17.50;99.90
36002;DHT22;22070;50.922;5.430;2022-10-18T09:11:49;17.40;99.90
36002;DHT22;22070;50.922;5.430;2022-10-18T09:14:36;17.50;99.90
36002;DHT22;22070;50.922;5.430;2022-10-18T09:20:26;17.50;99.90
36002;DHT22;22070;50.922;5.430;2022-10-18T09:23:18;17.50;99.90
36002;DHT22;22070;50.922;5.430;2022-10-18T09:28:46;17.60;99.90
36002;DHT22;22070;50.922;5.430;2022-10-18T09:36:42;17.60;99.90
36002;DHT22;22070;50.922;5.430;2022-10-18T09:39:12;17.60;99.90
36002;DHT22;22070;50.922;5.430;2022-10-18T09:44:54;17.70;99.90
36002;DHT22;22070;50.922;5.430;2022-10-18T09:47:24;17.70;99.90
36002;DHT22;22070;50.922;5.430;2022-10-18T09:50:16;17.70;99.90
36002;DHT22;22070;50.922;5.430;2022-10-18T09:53:07;17.80;99.90
36002;DHT22;22070;50.922;5.430;2022-10-18T09:55:43;17.80;99.90
36002;DHT22;22070;50.922;5.430;2022-10-18T09:58:14;17.90;99.90
36002;DHT22;22070;50.922;5.430;2022-10-18T10:00:46;18.00;99.90
36002;DHT22;22070;50.922;5.430;2022-10-18T10:03:13;18.10;99.90
36002;DHT22;22070;50.922;5.430;2022-10-18T10:05:42;18.20;99.90
36002;DHT22;22070;50.922;5.430;2022-10-18T10:08:08;18.20;99.90
36002;DHT22;22070;50.922;5.430;2022-10-18T10:10:34;18.30;99.90
36002;DHT22;22070;50.922;5.430;2022-10-18T10:13:09;18.20;99.90
36002;DHT22;22070;50.922;5.430;2022-10-18T10:15:38;18.20;99.90
36002;DHT22;22070;50.922;5.430;2022-10-18T10:20:56;18.30;99.90
36002;DHT22;22070;50.922;5.430;2022-10-18T10:23:26;18.40;99.90
36002;DHT22;22070;50.922;5.430;2022-10-18T10:26:01;18.50;99.90
36002;DHT22;22070;50.922;5.430;2022-10-18T10:28:32;18.60;99.90
36002;DHT22;22070;50.922;5.430;2022-10-18T10:31:26;18.60;99.90
36002;DHT22;22070;50.922;5.430;2022-10-18T10:36:46;18.90;99.90
36002;DHT22;22070;50.922;5.430;2022-10-18T10:39:14;18.90;99.90
36002;DHT22;22070;50.922;5.430;2022-10-18T10:41:57;18.90;99.90
36002;DHT22;22070;50.922;5.430;2022-10-18T10:44:27;19.00;99.90
36002;DHT22;22070;50.922;5.430;2022-10-18T10:46:53;19.00;99.90
36002;DHT22;22070;50.922;5.430;2022-10-18T10:49:37;18.90;99.90
36002;DHT22;22070;50.922;5.430;2022-10-18T10:52:06;18.80;99.90
36002;DHT22;22070;50.922;5.430;2022-10-18T10:54:38;18.80;99.90
36002;DHT22;22070;50.922;5.430;2022-10-18T10:57:15;18.90;99.90
36002;DHT22;22070;50.922;5.430;2022-10-18T10:59:47;18.80;99.90
36002;DHT22;22070;50.922;5.430;2022-10-18T11:04:40;18.90;99.90
36002;DHT22;22070;50.922;5.430;2022-10-18T11:12:35;18.80;99.90
36002;DHT22;22070;50.922;5.430;2022-10-18T11:18:24;18.90;99.90
36002;DHT22;22070;50.922;5.430;2022-10-18T11:21:16;18.90;99.90
36002;DHT22;22070;50.922;5.430;2022-10-18T11:23:43;18.90;99.90
36002;DHT22;22070;50.922;5.430;2022-10-18T11:36:52;19.10;99.90
36002;DHT22;22070;50.922;5.430;2022-10-18T11:54:02;19.10;99.90
36002;DHT22;22070;50.922;5.430;2022-10-18T11:56:39;19.10;99.90
36002;DHT22;22070;50.922;5.430;2022-10-18T11:59:28;19.10;99.90
36002;DHT22;22070;50.922;5.430;2022-10-18T12:05:00;19.20;99.90
36002;DHT22;22070;50.922;5.430;2022-10-18T12:07:31;19.20;99.90
36002;DHT22;22070;50.922;5.430;2022-10-18T12:10:00;19.00;99.90
36002;DHT22;22070;50.922;5.430;2022-10-18T12:12:27;19.10;99.90
36002;DHT22;22070;50.922;5.430;2022-10-18T12:15:00;19.20;99.90
36002;DHT22;22070;50.922;5.430;2022-10-18T12:19:57;19.40;99.90
36002;DHT22;22070;50.922;5.430;2022-10-18T12:22:55;19.40;99.90
36002;DHT22;22070;50.922;5.430;2022-10-18T12:25:24;19.40;99.90
36002;DHT22;22070;50.922;5.430;2022-10-18T12:33:36;19.50;99.90
36002;DHT22;22070;50.922;5.430;2022-10-18T12:38:46;19.60;99.90
36002;DHT22;22070;50.922;5.430;2022-10-18T12:41:24;19.70;99.90
36002;DHT22;22070;50.922;5.430;2022-10-18T12:44:00;19.80;99.90
36002;DHT22;22070;50.922;5.430;2022-10-18T12:46:54;19.80;99.90
36002;DHT22;22070;50.922;5.430;2022-10-18T12:49:34;19.90;99.90
36002;DHT22;22070;50.922;5.430;2022-10-18T12:52:21;20.00;99.90
36002;DHT22;22070;50.922;5.430;2022-10-18T12:55:05;20.00;99.90
36002;DHT22;22070;50.922;5.430;2022-10-18T13:16:51;19.90;99.90
36002;DHT22;22070;50.922;5.430;2022-10-18T13:35:50;20.30;99.90
36002;DHT22;22070;50.922;5.430;2022-10-18T13:38:28;20.40;99.90
36002;DHT22;22070;50.922;5.430;2022-10-18T13:41:13;20.50;99.90
36002;DHT22;22070;50.922;5.430;2022-10-18T13:49:17;20.60;99.90
36002;DHT22;22070;50.922;5.430;2022-10-18T14:08:58;20.70;99.90
36002;DHT22;22070;50.922;5.430;2022-10-18T14:11:42;20.80;99.90
36002;DHT22;22070;50.922;5.430;2022-10-18T14:14:31;20.80;99.90
36002;DHT22;22070;50.922;5.430;2022-10-18T14:19:57;21.00;99.90
36002;DHT22;22070;50.922;5.430;2022-10-18T14:22:45;21.00;99.90
36002;DHT22;22070;50.922;5.430;2022-10-18T14:25:21;21.00;99.90
36002;DHT22;22070;50.922;5.430;2022-10-18T14:28:20;21.10;99.90
36002;DHT22;22070;50.922;5.430;2022-10-18T14:30:59;21.10;99.90
36002;DHT22;22070;50.922;5.430;2022-10-18T14:33:46;21.10;99.90
36002;DHT22;22070;50.922;5.430;2022-10-18T14:39:05;21.20;99.90
36002;DHT22;22070;50.922;5.430;2022-10-18T14:41:33;21.20;99.90
36002;DHT22;22070;50.922;5.430;2022-10-18T14:46:49;21.30;99.90
36002;DHT22;22070;50.922;5.430;2022-10-18T14:49:17;21.30;99.90
36002;DHT22;22070;50.922;5.430;2022-10-18T14:51:45;21.40;99.90
36002;DHT22;22070;50.922;5.430;2022-10-18T14:54:20;21.30;99.90
36002;DHT22;22070;50.922;5.430;2022-10-18T14:56:47;21.30;99.90
36002;DHT22;22070;50.922;5.430;2022-10-18T14:59:19;21.40;99.90
36002;DHT22;22070;50.922;5.430;2022-10-18T15:01:57;21.40;99.90
36002;DHT22;22070;50.922;5.430;2022-10-18T15:04:25;21.50;99.90
36002;DHT22;22070;50.922;5.430;2022-10-18T15:07:02;21.50;99.90
36002;DHT22;22070;50.922;5.430;2022-10-18T15:09:29;21.50;99.90
36002;DHT22;22070;50.922;5.430;2022-10-18T15:11:56;21.60;99.90
36002;DHT22;22070;50.922;5.430;2022-10-18T15:14:24;21.60;99.90
36002;DHT22;22070;50.922;5.430;2022-10-18T15:16:52;21.70;99.90
36002;DHT22;22070;50.922;5.430;2022-10-18T15:19:34;21.60;99.90
36002;DHT22;22070;50.922;5.430;2022-10-18T15:22:05;21.60;99.90
36002;DHT22;22070;50.922;5.430;2022-10-18T15:24:34;21.60;99.90
36002;DHT22;22070;50.922;5.430;2022-10-18T15:27:16;21.70;99.90
36002;DHT22;22070;50.922;5.430;2022-10-18T15:29:43;21.70;99.90
36002;DHT22;22070;50.922;5.430;2022-10-18T15:32:18;21.80;99.90
36002;DHT22;22070;50.922;5.430;2022-10-18T15:34:44;21.80;99.90
36002;DHT22;22070;50.922;5.430;2022-10-18T15:37:38;21.80;99.90
36002;DHT22;22070;50.922;5.430;2022-10-18T15:42:50;21.80;99.90
36002;DHT22;22070;50.922;5.430;2022-10-18T15:48:21;21.90;99.90
36002;DHT22;22070;50.922;5.430;2022-10-18T15:50:48;21.90;99.90
36002;DHT22;22070;50.922;5.430;2022-10-18T15:58:36;21.90;99.90
36002;DHT22;22070;50.922;5.430;2022-10-18T16:01:04;21.90;99.90
36002;DHT22;22070;50.922;5.430;2022-10-18T16:03:35;22.00;99.90
36002;DHT22;22070;50.922;5.430;2022-10-18T16:06:06;21.80;99.90
36002;DHT22;22070;50.922;5.430;2022-10-18T16:08:36;21.70;99.90
36002;DHT22;22070;50.922;5.430;2022-10-18T16:11:06;21.50;99.90
36002;DHT22;22070;50.922;5.430;2022-10-18T16:13:32;21.40;99.90
36002;DHT22;22070;50.922;5.430;2022-10-18T16:15:58;21.20;99.90
36002;DHT22;22070;50.922;5.430;2022-10-18T16:18:25;21.00;99.90
36002;DHT22;22070;50.922;5.430;2022-10-18T16:20:51;20.80;99.90
36002;DHT22;22070;50.922;5.430;2022-10-18T16:23:23;20.70;99.90
36002;DHT22;22070;50.922;5.430;2022-10-18T16:25:50;20.50;99.90
36002;DHT22;22070;50.922;5.430;2022-10-18T16:28:22;20.40;99.90
36002;DHT22;22070;50.922;5.430;2022-10-18T16:30:59;20.20;99.90
36002;DHT22;22070;50.922;5.430;2022-10-18T16:33:26;20.00;99.90
36002;DHT22;22070;50.922;5.430;2022-10-18T16:35:52;19.80;99.90
36002;DHT22;22070;50.922;5.430;2022-10-18T16:38:28;19.70;99.90
36002;DHT22;22070;50.922;5.430;2022-10-18T16:40:54;19.60;99.90
36002;DHT22;22070;50.922;5.430;2022-10-18T16:43:20;19.40;99.90
36002;DHT22;22070;50.922;5.430;2022-10-18T16:45:46;19.20;99.90
36002;DHT22;22070;50.922;5.430;2022-10-18T16:48:14;19.10;99.90
36002;DHT22;22070;50.922;5.430;2022-10-18T16:50:40;19.00;99.90
36002;DHT22;22070;50.922;5.430;2022-10-18T16:53:06;18.80;99.90
36002;DHT22;22070;50.922;5.430;2022-10-18T16:55:31;18.70;99.90
36002;DHT22;22070;50.922;5.430;2022-10-18T16:57:58;18.50;99.90
36002;DHT22;22070;50.922;5.430;2022-10-18T17:00:24;18.40;99.90
36002;DHT22;22070;50.922;5.430;2022-10-18T17:02:50;18.30;99.90
36002;DHT22;22070;50.922;5.430;2022-10-18T17:05:17;18.20;99.90
36002;DHT22;22070;50.922;5.430;2022-10-18T17:07:43;18.10;99.90
36002;DHT22;22070;50.922;5.430;2022-10-18T17:10:13;17.90;99.90
36002;DHT22;22070;50.922;5.430;2022-10-18T17:12:39;17.90;99.90
36002;DHT22;22070;50.922;5.430;2022-10-18T17:15:06;17.70;99.90
36002;DHT22;22070;50.922;5.430;2022-10-18T17:17:32;17.70;99.90
36002;DHT22;22070;50.922;5.430;2022-10-18T17:19:57;17.60;99.90
36002;DHT22;22070;50.922;5.430;2022-10-18T17:22:23;17.40;99.90
36002;DHT22;22070;50.922;5.430;2022-10-18T17:24:49;17.30;99.90
36002;DHT22;22070;50.922;5.430;2022-10-18T17:27:15;17.30;99.90
36002;DHT22;22070;50.922;5.430;2022-10-18T17:29:41;17.20;99.90
36002;DHT22;22070;50.922;5.430;2022-10-18T17:32:07;17.10;99.90
36002;DHT22;22070;50.922;5.430;2022-10-18T17:34:33;17.00;99.90
36002;DHT22;22070;50.922;5.430;2022-10-18T17:37:03;16.90;99.90
36002;DHT22;22070;50.922;5.430;2022-10-18T17:39:29;16.90;99.90
36002;DHT22;22070;50.922;5.430;2022-10-18T17:41:55;16.80;99.90
36002;DHT22;22070;50.922;5.430;2022-10-18T17:44:22;16.70;99.90
36002;DHT22;22070;50.922;5.430;2022-10-18T17:46:47;16.70;99.90
36002;DHT22;22070;50.922;5.430;2022-10-18T17:49:13;16.60;99.90
36002;DHT22;22070;50.922;5.430;2022-10-18T17:51:40;16.60;99.90
36002;DHT22;22070;50.922;5.430;2022-10-18T17:54:07;16.50;99.90
36002;DHT22;22070;50.922;5.430;2022-10-18T17:56:33;16.40;99.90
36002;DHT22;22070;50.922;5.430;2022-10-18T17:58:59;16.40;99.90
36002;DHT22;22070;50.922;5.430;2022-10-18T18:01:25;16.30;99.90
36002;DHT22;22070;50.922;5.430;2022-10-18T18:03:58;16.20;99.90
36002;DHT22;22070;50.922;5.430;2022-10-18T18:06:26;16.20;99.90
36002;DHT22;22070;50.922;5.430;2022-10-18T18:08:56;16.10;99.90
36002;DHT22;22070;50.922;5.430;2022-10-18T18:11:23;16.10;99.90
36002;DHT22;22070;50.922;5.430;2022-10-18T18:13:48;16.00;99.90
36002;DHT22;22070;50.922;5.430;2022-10-18T18:16:20;16.00;99.90
36002;DHT22;22070;50.922;5.430;2022-10-18T18:18:48;15.90;99.90
36002;DHT22;22070;50.922;5.430;2022-10-18T18:21:15;16.00;99.90
36002;DHT22;22070;50.922;5.430;2022-10-18T18:23:41;15.90;99.90
36002;DHT22;22070;50.922;5.430;2022-10-18T18:26:06;15.90;99.90
36002;DHT22;22070;50.922;5.430;2022-10-18T18:28:33;15.90;99.90
36002;DHT22;22070;50.922;5.430;2022-10-18T18:30:59;15.80;99.90
36002;DHT22;22070;50.922;5.430;2022-10-18T18:33:31;15.80;99.90
36002;DHT22;22070;50.922;5.430;2022-10-18T18:35:57;15.80;99.90
36002;DHT22;22070;50.922;5.430;2022-10-18T18:38:23;15.70;99.90
36002;DHT22;22070;50.922;5.430;2022-10-18T18:40:49;15.60;99.90
36002;DHT22;22070;50.922;5.430;2022-10-18T18:43:15;15.50;99.90
36002;DHT22;22070;50.922;5.430;2022-10-18T18:45:40;15.40;99.90